Time;durP1;ratioP1;P1;durP2;ratioP2;P2;SDS_P1;SDS_P2;PMS_P1;PMS_P2;Temp;Humidity;BMP_temperature;BMP_pressure;BME280_temperature;BME280_humidity;BME280_pressure;Samples;Min_cycle;Max_cycle;Signal;HPM_P1;HPM_P2
2022/03/12 00:01:15;;;;;;;14.13;10.10;;;4.80;40.00;;;;;;5053607;28;20259;-63
2022/03/12 00:03:42;;;;;;;14.57;9.40;;;4.70;39.70;;;;;;5053430;28;20706;-62
2022/03/12 00:06:10;;;;;;;18.00;10.35;;;4.70;39.90;;;;;;5054160;28;20672;-63
2022/03/12 00:08:42;;;;;;;18.20;10.77;;;4.70;40.00;;;;;;5054218;28;20222;-63
2022/03/12 00:11:14;;;;;;;15.50;10.15;;;4.70;40.10;;;;;;5053812;28;20245;-63
2022/03/12 00:13:42;;;;;;;16.52;10.57;;;4.60;40.00;;;;;;5050041;28;20571;-62
2022/03/12 00:16:12;;;;;;;15.32;9.30;;;4.70;40.10;;;;;;5053506;28;20229;-63
2022/03/12 00:18:42;;;;;;;15.43;10.45;;;4.70;40.30;;;;;;5052806;28;20229;-62
2022/03/12 00:21:11;;;;;;;19.52;10.80;;;4.70;40.30;;;;;;5048424;28;20300;-63
2022/03/12 00:23:38;;;;;;;18.20;10.90;;;4.60;40.20;;;;;;5052149;28;20743;-63
2022/03/12 00:26:06;;;;;;;18.38;11.18;;;4.60;40.30;;;;;;5052192;28;20232;-63
2022/03/12 00:28:33;;;;;;;14.40;10.32;;;4.50;40.30;;;;;;5053916;28;20311;-63
2022/03/12 00:31:00;;;;;;;16.40;10.85;;;4.50;40.50;;;;;;5052701;28;20610;-64
2022/03/12 00:33:27;;;;;;;19.45;10.68;;;4.40;40.30;;;;;;5053329;28;20311;-64
2022/03/12 00:35:55;;;;;;;16.17;10.10;;;4.30;40.60;;;;;;5053018;28;20308;-63
2022/03/12 00:38:23;;;;;;;15.20;10.73;;;4.30;40.80;;;;;;5053197;28;20267;-62
2022/03/12 00:40:51;;;;;;;18.65;12.25;;;4.30;40.90;;;;;;5052893;28;20244;-62
2022/03/12 00:43:18;;;;;;;17.08;10.77;;;4.30;40.80;;;;;;5052444;28;20230;-63
2022/03/12 00:45:46;;;;;;;14.43;9.77;;;4.30;40.90;;;;;;5053291;28;20229;-63
2022/03/12 00:48:13;;;;;;;14.73;10.60;;;4.30;41.10;;;;;;5052856;28;20217;-63
2022/03/12 00:50:41;;;;;;;13.30;11.90;;;4.20;41.00;;;;;;5053274;28;20223;-63
2022/03/12 00:53:08;;;;;;;16.65;11.82;;;4.30;41.10;;;;;;5051398;28;20221;-63
2022/03/12 00:55:36;;;;;;;17.30;11.30;;;4.30;41.10;;;;;;5053407;28;20217;-63
2022/03/12 00:58:03;;;;;;;14.60;9.93;;;4.30;41.00;;;;;;5052938;28;20217;-63
2022/03/12 01:00:31;;;;;;;15.35;11.45;;;4.30;41.10;;;;;;5052995;28;20228;-63
2022/03/12 01:02:57;;;;;;;17.38;11.07;;;4.20;41.20;;;;;;5049749;28;20229;-63
2022/03/12 01:05:43;;;;;;;17.05;10.77;;;4.20;41.50;;;;;;5052661;28;20545;-63
2022/03/12 01:08:10;;;;;;;19.83;11.75;;;4.20;41.30;;;;;;5058209;28;20224;-63
2022/03/12 01:10:38;;;;;;;16.20;11.02;;;4.10;41.30;;;;;;5053127;28;20236;-63
2022/03/12 01:13:05;;;;;;;14.75;10.52;;;4.20;41.50;;;;;;5049661;28;20217;-64
2022/03/12 01:15:33;;;;;;;15.55;10.50;;;4.10;41.50;;;;;;5050969;28;20224;-61
2022/03/12 01:18:00;;;;;;;15.80;10.57;;;4.20;41.60;;;;;;5052025;28;20221;-63
2022/03/12 01:20:28;;;;;;;21.50;11.50;;;4.20;41.60;;;;;;5052883;28;20237;-63
2022/03/12 01:22:55;;;;;;;16.42;11.00;;;4.10;41.50;;;;;;5051558;28;20252;-63
2022/03/12 01:25:22;;;;;;;16.33;11.38;;;4.10;41.80;;;;;;5052519;28;20245;-63
2022/03/12 01:27:50;;;;;;;11.68;10.13;;;4.10;41.80;;;;;;5052720;28;20251;-63
2022/03/12 01:30:27;;;;;;;17.67;11.88;;;4.10;41.90;;;;;;5051973;28;21020;-62
2022/03/12 01:32:54;;;;;;;15.73;8.95;;;4.00;42.00;;;;;;5052082;28;20217;-63
2022/03/12 01:35:21;;;;;;;16.63;10.30;;;4.00;42.00;;;;;;5052262;28;20217;-63
2022/03/12 01:37:48;;;;;;;16.17;10.25;;;4.00;42.20;;;;;;5051295;28;20228;-64
2022/03/12 01:40:15;;;;;;;16.52;10.23;;;3.90;42.20;;;;;;5050232;28;20278;-64
2022/03/12 01:42:43;;;;;;;15.13;10.00;;;3.90;42.20;;;;;;5052545;28;20671;-64
2022/03/12 01:45:13;;;;;;;15.48;11.20;;;3.90;42.30;;;;;;5047817;28;20248;-64
2022/03/12 01:47:41;;;;;;;15.77;10.15;;;3.90;42.30;;;;;;5044348;28;20698;-63
2022/03/12 01:50:09;;;;;;;10.70;9.05;;;3.80;42.30;;;;;;5051467;28;20290;-64
2022/03/12 01:52:36;;;;;;;16.40;10.07;;;3.80;42.50;;;;;;5052284;28;20236;-64
2022/03/12 01:55:06;;;;;;;13.77;9.70;;;3.80;42.50;;;;;;5051601;28;20232;-62
2022/03/12 01:57:33;;;;;;;18.52;11.07;;;3.80;42.60;;;;;;5050338;28;20267;-62
2022/03/12 02:00:00;;;;;;;14.80;10.10;;;3.70;42.60;;;;;;5050460;28;20217;-62
2022/03/12 02:02:28;;;;;;;11.50;9.25;;;3.60;42.70;;;;;;5052323;28;20680;-63
2022/03/12 02:04:56;;;;;;;17.40;10.40;;;3.60;42.90;;;;;;5047399;28;20217;-61
2022/03/12 02:07:23;;;;;;;15.93;10.68;;;3.60;43.10;;;;;;5050834;28;20217;-63
2022/03/12 02:09:50;;;;;;;15.52;11.05;;;3.60;43.20;;;;;;5050508;28;20213;-63
2022/03/12 02:12:17;;;;;;;13.98;10.32;;;3.60;43.30;;;;;;5051961;28;20221;-63
2022/03/12 02:14:44;;;;;;;14.38;10.88;;;3.60;43.00;;;;;;5049138;28;20221;-63
2022/03/12 02:17:12;;;;;;;15.15;10.10;;;3.60;43.00;;;;;;5051886;28;20675;-62
2022/03/12 02:19:41;;;;;;;14.48;10.23;;;3.50;43.30;;;;;;5052117;28;20225;-63
2022/03/12 02:22:10;;;;;;;13.73;11.13;;;3.50;43.40;;;;;;5048260;28;20238;-63
2022/03/12 02:24:39;;;;;;;18.50;11.40;;;3.60;43.40;;;;;;5050312;28;20221;-63
2022/03/12 02:27:08;;;;;;;20.90;10.13;;;3.50;43.50;;;;;;5045122;28;20721;-63
2022/03/12 02:29:35;;;;;;;19.83;11.60;;;3.50;43.50;;;;;;5038448;28;20225;-63
2022/03/12 02:32:09;;;;;;;14.95;10.93;;;3.50;43.40;;;;;;5051526;28;20229;-63
2022/03/12 02:34:42;;;;;;;21.80;11.80;;;3.50;43.30;;;;;;5051880;28;20698;-63
2022/03/12 02:37:10;;;;;;;14.68;10.70;;;3.60;43.40;;;;;;5051392;28;20544;-63
2022/03/12 02:39:41;;;;;;;19.80;11.43;;;3.50;43.20;;;;;;5050810;28;20232;-63
2022/03/12 02:42:08;;;;;;;16.25;11.85;;;3.50;43.30;;;;;;5050658;28;20591;-63
2022/03/12 02:44:36;;;;;;;16.00;9.73;;;3.40;43.20;;;;;;5051874;28;20221;-63
2022/03/12 02:47:14;;;;;;;18.48;11.68;;;3.40;43.30;;;;;;5050929;28;20690;-63
2022/03/12 02:49:45;;;;;;;15.07;9.90;;;3.30;43.40;;;;;;5054987;28;20300;-63
2022/03/12 02:52:13;;;;;;;15.80;10.73;;;3.30;43.60;;;;;;5055226;28;20233;-63
2022/03/12 02:54:48;;;;;;;16.67;10.90;;;3.30;43.60;;;;;;5055843;28;20282;-63
2022/03/12 02:57:15;;;;;;;16.50;11.75;;;3.30;43.50;;;;;;5042659;28;20248;-63
2022/03/12 02:59:43;;;;;;;15.88;10.27;;;3.30;43.60;;;;;;5055328;28;20222;-63
2022/03/12 03:02:11;;;;;;;18.77;12.20;;;3.10;43.30;;;;;;5055256;28;20275;-63
2022/03/12 03:04:40;;;;;;;13.63;11.40;;;3.20;43.70;;;;;;5055525;28;20221;-63
2022/03/12 03:07:08;;;;;;;15.98;11.85;;;3.20;43.70;;;;;;5055102;28;20225;-63
2022/03/12 03:09:36;;;;;;;16.33;11.60;;;3.20;43.80;;;;;;5055537;28;20383;-64
2022/03/12 03:12:08;;;;;;;18.60;12.82;;;3.20;43.80;;;;;;5054734;28;20233;-63
2022/03/12 03:14:36;;;;;;;18.25;11.45;;;3.20;43.90;;;;;;5054162;28;20216;-61
2022/03/12 03:17:04;;;;;;;18.33;11.52;;;3.20;43.90;;;;;;5054492;28;20217;-62
2022/03/12 03:19:34;;;;;;;11.40;9.05;;;3.30;43.90;;;;;;5054321;28;20575;-63
2022/03/12 03:22:01;;;;;;;21.08;11.45;;;3.20;43.70;;;;;;5051701;28;20235;-63
2022/03/12 03:24:28;;;;;;;21.20;12.27;;;3.20;43.70;;;;;;5054547;28;20219;-63
2022/03/12 03:26:57;;;;;;;17.02;10.77;;;3.20;43.60;;;;;;5054760;28;20221;-63
2022/03/12 03:29:28;;;;;;;15.15;10.98;;;3.20;43.80;;;;;;5054130;28;20221;-62
2022/03/12 03:31:55;;;;;;;15.75;11.05;;;3.10;43.60;;;;;;5051394;28;20226;-63
2022/03/12 03:34:23;;;;;;;15.25;11.63;;;3.20;43.80;;;;;;5053752;28;20229;-63
2022/03/12 03:36:50;;;;;;;17.55;11.40;;;3.20;43.60;;;;;;5054933;28;20232;-63
2022/03/12 03:39:20;;;;;;;14.15;11.05;;;3.20;43.60;;;;;;5054517;28;20224;-63
2022/03/12 03:41:51;;;;;;;13.15;10.48;;;3.20;43.80;;;;;;5054701;28;20236;-63
2022/03/12 03:44:23;;;;;;;15.48;10.82;;;3.10;43.60;;;;;;5041779;28;20225;-63
2022/03/12 03:46:51;;;;;;;12.63;10.23;;;3.10;43.80;;;;;;5054793;28;20239;-63
2022/03/12 03:49:18;;;;;;;15.70;11.30;;;3.00;43.70;;;;;;5054408;28;20229;-63
2022/03/12 03:51:46;;;;;;;15.68;10.10;;;3.10;43.80;;;;;;5054409;28;20243;-63
2022/03/12 03:54:14;;;;;;;15.25;9.75;;;3.00;43.80;;;;;;5054391;28;20224;-63
2022/03/12 03:56:41;;;;;;;15.25;9.65;;;3.00;43.80;;;;;;5054695;28;20725;-63
2022/03/12 03:59:09;;;;;;;16.20;10.85;;;3.00;43.70;;;;;;5053570;28;20236;-62
2022/03/12 04:01:41;;;;;;;15.00;10.40;;;3.00;43.80;;;;;;5054537;28;20229;-63
2022/03/12 04:04:12;;;;;;;17.48;11.30;;;2.90;43.80;;;;;;5054265;28;20687;-63
2022/03/12 04:06:39;;;;;;;15.35;10.48;;;2.90;44.10;;;;;;5054378;28;20221;-63
2022/03/12 04:09:06;;;;;;;19.67;11.90;;;2.90;44.20;;;;;;5053952;28;20221;-63
2022/03/12 04:11:34;;;;;;;19.60;12.65;;;2.80;44.00;;;;;;5054274;28;20240;-63
2022/03/12 04:14:04;;;;;;;14.35;10.18;;;2.80;44.20;;;;;;5052341;28;20305;-62
2022/03/12 04:16:33;;;;;;;12.00;10.48;;;2.80;44.30;;;;;;5053193;28;20221;-62
2022/03/12 04:19:02;;;;;;;19.30;11.85;;;2.70;44.20;;;;;;5054370;28;20227;-63
2022/03/12 04:21:30;;;;;;;15.23;11.20;;;2.70;44.30;;;;;;5040192;28;20225;-63
2022/03/12 04:23:57;;;;;;;19.95;12.15;;;2.80;44.40;;;;;;5053967;28;20679;-63
2022/03/12 04:26:27;;;;;;;18.15;12.15;;;2.80;44.20;;;;;;5044403;28;20228;-63
2022/03/12 04:28:57;;;;;;;13.45;11.57;;;2.80;44.30;;;;;;5053802;28;20683;-63
2022/03/12 04:31:24;;;;;;;13.25;10.20;;;2.80;44.40;;;;;;5053559;28;20232;-63
2022/03/12 04:33:51;;;;;;;17.10;11.60;;;2.80;44.30;;;;;;5054032;28;20565;-63
2022/03/12 04:36:18;;;;;;;16.23;10.40;;;2.90;44.50;;;;;;5053472;28;20225;-63
2022/03/12 04:38:49;;;;;;;16.05;10.80;;;2.70;44.40;;;;;;5053582;28;20217;-63
2022/03/12 04:41:17;;;;;;;15.75;11.43;;;2.80;44.50;;;;;;5053139;28;20236;-63
2022/03/12 04:43:44;;;;;;;16.92;10.75;;;2.80;44.40;;;;;;5053713;28;20225;-63
2022/03/12 04:46:11;;;;;;;19.10;12.98;;;2.80;44.40;;;;;;5053027;28;20567;-63
2022/03/12 04:48:38;;;;;;;17.30;11.23;;;2.70;44.20;;;;;;5053531;28;20228;-63
2022/03/12 04:51:05;;;;;;;18.02;12.05;;;2.70;44.30;;;;;;5053405;28;20296;-63
2022/03/12 04:53:32;;;;;;;17.23;11.48;;;2.70;44.50;;;;;;5049851;28;20229;-64
2022/03/12 04:56:00;;;;;;;23.50;12.35;;;2.70;44.50;;;;;;5053570;28;20231;-64
2022/03/12 04:58:28;;;;;;;16.52;11.52;;;2.60;44.50;;;;;;5052754;28;20268;-63
2022/03/12 05:00:55;;;;;;;17.30;12.02;;;2.60;45.10;;;;;;5053259;28;20225;-63
2022/03/12 05:03:24;;;;;;;20.25;13.30;;;2.60;44.60;;;;;;5052869;28;20225;-63
2022/03/12 05:05:52;;;;;;;16.85;11.48;;;2.60;44.70;;;;;;5053282;28;20225;-63
2022/03/12 05:08:20;;;;;;;15.80;11.52;;;2.60;44.60;;;;;;5052714;28;20698;-63
2022/03/12 05:10:50;;;;;;;13.88;10.95;;;2.60;44.60;;;;;;5052537;28;20230;-63
2022/03/12 05:13:22;;;;;;;17.48;11.57;;;2.70;44.80;;;;;;5052631;28;20225;-63
2022/03/12 05:15:51;;;;;;;16.02;11.00;;;2.70;44.80;;;;;;5040369;28;20299;-63
2022/03/12 05:18:19;;;;;;;15.45;10.88;;;2.60;44.80;;;;;;5052884;28;20250;-63
2022/03/12 05:20:47;;;;;;;15.77;10.70;;;2.60;45.40;;;;;;5052712;28;20296;-63
2022/03/12 05:23:15;;;;;;;16.40;12.00;;;2.60;44.90;;;;;;5052484;28;20249;-63
2022/03/12 05:25:42;;;;;;;18.17;11.50;;;2.70;45.00;;;;;;5043333;28;20221;-63
2022/03/12 05:28:10;;;;;;;17.23;11.80;;;2.80;45.00;;;;;;5043389;28;20221;-63
2022/03/12 05:30:39;;;;;;;18.17;11.80;;;2.70;44.90;;;;;;5052293;28;20218;-63
2022/03/12 05:33:08;;;;;;;18.00;10.25;;;2.80;44.90;;;;;;5052953;28;20227;-63
2022/03/12 05:35:39;;;;;;;18.33;11.75;;;2.80;44.90;;;;;;5052457;28;20225;-63
2022/03/12 05:38:06;;;;;;;19.85;12.43;;;2.80;45.00;;;;;;5052694;28;20224;-63
2022/03/12 05:40:38;;;;;;;17.42;10.68;;;2.90;45.00;;;;;;5052313;28;20259;-63
2022/03/12 05:43:11;;;;;;;17.92;13.02;;;2.80;45.00;;;;;;5052665;28;20220;-63
2022/03/12 05:45:40;;;;;;;18.15;11.70;;;2.80;45.10;;;;;;5052242;28;20221;-63
2022/03/12 05:48:09;;;;;;;20.00;12.43;;;2.90;45.10;;;;;;5052505;28;20229;-63
2022/03/12 05:50:36;;;;;;;18.50;11.52;;;2.80;45.00;;;;;;5052204;28;20304;-63
2022/03/12 05:53:08;;;;;;;17.92;11.55;;;2.90;45.10;;;;;;5052476;28;20235;-63
2022/03/12 05:55:39;;;;;;;19.95;12.48;;;2.80;45.60;;;;;;5052219;28;20232;-63
2022/03/12 05:58:06;;;;;;;15.65;11.52;;;2.80;45.10;;;;;;5052580;28;20221;-63
2022/03/12 06:00:33;;;;;;;16.48;12.45;;;2.80;45.20;;;;;;5051940;28;20225;-63
2022/03/12 06:03:02;;;;;;;14.75;11.57;;;2.70;45.10;;;;;;5047941;28;20231;-63
2022/03/12 06:05:31;;;;;;;16.67;11.50;;;2.70;45.60;;;;;;5052131;28;20240;-63
2022/03/12 06:07:59;;;;;;;17.00;11.70;;;2.70;45.40;;;;;;5052142;28;20221;-63
2022/03/12 06:10:28;;;;;;;16.40;11.63;;;2.70;45.60;;;;;;5051782;28;20667;-63
2022/03/12 06:12:57;;;;;;;16.98;12.45;;;2.70;45.60;;;;;;5053851;28;20276;-63
2022/03/12 06:15:25;;;;;;;18.40;12.10;;;2.70;45.60;;;;;;5045125;28;20221;-63
2022/03/12 06:17:53;;;;;;;17.80;12.38;;;2.80;45.70;;;;;;5052030;28;20575;-63
2022/03/12 06:20:22;;;;;;;19.45;13.02;;;2.80;45.70;;;;;;5051893;28;20238;-63
2022/03/12 06:22:52;;;;;;;19.75;12.95;;;2.80;45.70;;;;;;5053464;28;20571;-63
2022/03/12 06:25:19;;;;;;;14.55;11.55;;;2.80;45.60;;;;;;5047841;28;20221;-63
2022/03/12 06:27:54;;;;;;;20.15;12.30;;;2.80;45.50;;;;;;5043636;28;20689;-63
2022/03/12 06:30:22;;;;;;;18.63;12.30;;;2.90;45.60;;;;;;5055789;28;20308;-62
2022/03/12 06:32:49;;;;;;;18.42;12.27;;;2.90;45.60;;;;;;5055894;28;20225;-63
2022/03/12 06:35:17;;;;;;;17.92;13.10;;;2.90;45.60;;;;;;5056013;28;20221;-63
2022/03/12 06:37:45;;;;;;;17.48;11.63;;;3.00;45.70;;;;;;5055909;28;20728;-64
2022/03/12 06:40:15;;;;;;;26.10;11.13;;;3.00;45.70;;;;;;5055806;28;20225;-63
2022/03/12 06:42:42;;;;;;;18.05;12.63;;;3.10;45.70;;;;;;5055723;28;20229;-64
2022/03/12 06:45:10;;;;;;;24.25;12.32;;;3.10;45.50;;;;;;5055707;28;20225;-63
2022/03/12 06:47:38;;;;;;;15.25;12.05;;;3.10;45.70;;;;;;5055468;28;20583;-64
2022/03/12 06:50:09;;;;;;;15.80;12.88;;;3.10;45.30;;;;;;5055715;28;20698;-62
2022/03/12 06:52:37;;;;;;;17.02;11.95;;;3.20;45.30;;;;;;5055413;28;20294;-63
2022/03/12 06:55:09;;;;;;;18.90;12.65;;;3.20;45.20;;;;;;5055679;28;20221;-64
2022/03/12 06:57:36;;;;;;;17.88;11.43;;;3.20;45.30;;;;;;5055314;28;20235;-63
2022/03/12 07:00:05;;;;;;;22.00;13.63;;;3.30;45.30;;;;;;5055691;28;20217;-63
2022/03/12 07:02:31;;;;;;;18.17;11.60;;;3.30;45.20;;;;;;5051569;28;20283;-63
2022/03/12 07:04:58;;;;;;;17.02;12.15;;;3.40;45.00;;;;;;5054911;28;20229;-63
2022/03/12 07:07:25;;;;;;;16.17;11.77;;;3.50;44.80;;;;;;5055178;28;20226;-63
2022/03/12 07:09:52;;;;;;;19.85;12.10;;;3.50;44.50;;;;;;5055434;28;20558;-63
2022/03/12 07:12:20;;;;;;;20.15;12.05;;;3.60;44.60;;;;;;5055455;28;20229;-62
2022/03/12 07:14:47;;;;;;;16.70;11.80;;;3.50;44.40;;;;;;5051591;28;20897;-63
2022/03/12 07:17:14;;;;;;;18.13;11.50;;;3.60;44.30;;;;;;5053892;28;20232;-63
2022/03/12 07:19:41;;;;;;;18.05;10.82;;;3.60;44.20;;;;;;5054267;28;20225;-63
2022/03/12 07:22:10;;;;;;;14.75;11.43;;;3.70;44.40;;;;;;5042151;28;20236;-63
2022/03/12 07:24:37;;;;;;;16.85;12.07;;;3.70;44.20;;;;;;5054618;28;20221;-64
2022/03/12 07:27:05;;;;;;;20.45;11.05;;;3.70;44.30;;;;;;5054942;28;20217;-63
2022/03/12 07:29:33;;;;;;;18.27;12.73;;;3.80;44.30;;;;;;5054730;28;20606;-63
2022/03/12 07:32:00;;;;;;;17.40;11.60;;;3.80;44.30;;;;;;5054822;28;20229;-63
2022/03/12 07:34:27;;;;;;;17.50;11.32;;;4.00;44.30;;;;;;5053755;28;20236;-63
2022/03/12 07:36:54;;;;;;;17.77;12.52;;;4.10;44.10;;;;;;5054944;28;20229;-63
2022/03/12 07:39:21;;;;;;;17.25;11.77;;;4.20;44.00;;;;;;5054866;28;20312;-63
2022/03/12 07:41:48;;;;;;;17.00;12.45;;;4.30;44.00;;;;;;5054347;28;20685;-63
2022/03/12 07:44:16;;;;;;;17.92;11.98;;;4.30;43.50;;;;;;5054847;28;20229;-63
2022/03/12 07:46:45;;;;;;;16.98;11.48;;;4.40;43.50;;;;;;5054443;28;20229;-62
2022/03/12 07:49:13;;;;;;;21.80;11.93;;;4.50;43.60;;;;;;5054387;28;20308;-63
2022/03/12 07:51:43;;;;;;;14.13;11.80;;;4.60;43.40;;;;;;5054097;28;20236;-64
2022/03/12 07:54:10;;;;;;;13.57;10.30;;;4.70;43.10;;;;;;5045489;28;20236;-63
2022/03/12 07:56:38;;;;;;;13.73;10.95;;;4.70;42.80;;;;;;5054366;28;20225;-63
2022/03/12 07:59:05;;;;;;;20.48;13.68;;;4.70;42.80;;;;;;5054683;28;20232;-64
2022/03/12 08:01:33;;;;;;;18.75;11.65;;;4.80;42.60;;;;;;5053784;28;20232;-64
2022/03/12 08:04:02;;;;;;;13.98;9.60;;;4.80;42.40;;;;;;5054700;28;20564;-64
2022/03/12 08:06:29;;;;;;;13.77;10.23;;;4.90;42.40;;;;;;5054100;28;20221;-64
2022/03/12 08:08:57;;;;;;;17.10;11.80;;;5.00;42.10;;;;;;5054271;28;20305;-64
2022/03/12 08:11:28;;;;;;;14.73;9.60;;;5.10;41.90;;;;;;5054372;28;20237;-64
2022/03/12 08:14:00;;;;;;;11.80;9.55;;;5.10;41.30;;;;;;5053985;28;20298;-64
2022/03/12 08:16:28;;;;;;;14.02;9.55;;;5.30;41.50;;;;;;5054156;28;20245;-64
2022/03/12 08:18:55;;;;;;;13.95;10.52;;;5.40;41.20;;;;;;5053527;28;20306;-64
2022/03/12 08:21:24;;;;;;;16.17;10.35;;;5.50;40.90;;;;;;5053921;28;20229;-64
2022/03/12 08:23:51;;;;;;;12.75;9.07;;;5.60;40.00;;;;;;5053469;28;20232;-64
2022/03/12 08:26:19;;;;;;;12.73;9.48;;;5.70;39.70;;;;;;5054043;28;20239;-64
2022/03/12 08:28:47;;;;;;;11.15;8.70;;;5.80;39.70;;;;;;5053485;28;20332;-64
2022/03/12 08:31:14;;;;;;;12.10;9.77;;;6.00;39.50;;;;;;5053920;28;20710;-64
2022/03/12 08:33:41;;;;;;;11.75;8.68;;;6.10;38.60;;;;;;5053472;28;20675;-62
2022/03/12 08:36:08;;;;;;;14.45;9.98;;;6.20;38.10;;;;;;5053680;28;20691;-63
2022/03/12 08:38:38;;;;;;;11.50;8.18;;;6.30;38.20;;;;;;5053242;28;20221;-64
2022/03/12 08:41:06;;;;;;;11.48;8.55;;;6.40;37.80;;;;;;5053908;28;20225;-63
2022/03/12 08:43:36;;;;;;;11.00;8.57;;;6.60;37.90;;;;;;5040256;28;20229;-63
2022/03/12 08:46:05;;;;;;;9.70;7.78;;;6.50;37.00;;;;;;5053517;28;20221;-63
2022/03/12 08:48:32;;;;;;;14.13;8.65;;;6.50;36.50;;;;;;5053586;28;20651;-63
2022/03/12 08:50:59;;;;;;;11.73;8.90;;;6.60;36.70;;;;;;5053003;28;20236;-64
2022/03/12 08:53:26;;;;;;;12.07;9.05;;;6.70;36.80;;;;;;5053633;28;20229;-63
2022/03/12 08:55:54;;;;;;;11.45;9.18;;;6.80;36.20;;;;;;5053048;28;20679;-63
2022/03/12 08:58:23;;;;;;;12.48;8.70;;;6.90;36.20;;;;;;5053519;28;20224;-63
2022/03/12 09:00:52;;;;;;;13.60;9.10;;;7.00;36.60;;;;;;5052747;28;20244;-63
2022/03/12 09:03:20;;;;;;;11.02;8.02;;;7.00;35.20;;;;;;5053544;28;20233;-63
2022/03/12 09:05:47;;;;;;;11.18;8.60;;;7.00;35.00;;;;;;5052887;28;20227;-64
2022/03/12 09:08:15;;;;;;;13.55;7.78;;;7.10;34.60;;;;;;5053217;28;20229;-64
2022/03/12 09:10:42;;;;;;;14.70;8.73;;;7.10;34.70;;;;;;5052656;28;20234;-63
2022/03/12 09:13:12;;;;;;;9.52;7.80;;;7.20;35.00;;;;;;5053353;28;20240;-64
2022/03/12 09:15:40;;;;;;;11.40;8.05;;;7.20;34.10;;;;;;5052449;28;20253;-62
2022/03/12 09:18:08;;;;;;;14.82;9.70;;;7.20;34.40;;;;;;5053064;28;20248;-63
2022/03/12 09:20:38;;;;;;;10.73;8.63;;;7.20;34.30;;;;;;5052785;28;20232;-63
2022/03/12 09:23:05;;;;;;;11.77;7.82;;;7.30;34.70;;;;;;5052741;28;20244;-63
2022/03/12 09:25:32;;;;;;;10.73;8.05;;;7.40;34.60;;;;;;5052740;28;20667;-64
2022/03/12 09:27:59;;;;;;;9.80;7.85;;;7.50;34.40;;;;;;5052585;28;20229;-64
2022/03/12 09:30:27;;;;;;;10.32;7.65;;;7.60;33.90;;;;;;5052671;28;20624;-64
2022/03/12 09:32:54;;;;;;;8.02;7.22;;;7.60;34.10;;;;;;5052378;28;20229;-64
2022/03/12 09:35:21;;;;;;;11.45;7.55;;;7.70;33.40;;;;;;5052779;28;20225;-63
2022/03/12 09:37:49;;;;;;;10.82;6.65;;;7.80;33.90;;;;;;5052073;28;20236;-63
2022/03/12 09:40:16;;;;;;;8.05;7.22;;;7.90;32.80;;;;;;5052901;28;20244;-63
2022/03/12 09:42:43;;;;;;;10.43;8.70;;;8.10;32.80;;;;;;5052129;28;20221;-63
2022/03/12 09:45:10;;;;;;;8.70;7.50;;;8.10;32.50;;;;;;5052804;28;20573;-64
2022/03/12 09:47:38;;;;;;;7.60;6.80;;;8.10;32.00;;;;;;5052644;28;20225;-63
2022/03/12 09:50:06;;;;;;;10.10;6.55;;;8.20;31.80;;;;;;5051905;28;20240;-62
2022/03/12 09:52:33;;;;;;;12.70;7.40;;;8.30;31.90;;;;;;5052592;28;20572;-63
2022/03/12 09:55:00;;;;;;;14.13;7.40;;;8.40;31.40;;;;;;5052220;28;20225;-63
2022/03/12 09:57:27;;;;;;;8.45;6.78;;;8.40;31.00;;;;;;5052127;28;20228;-64
2022/03/12 09:59:55;;;;;;;5.95;5.35;;;8.30;30.30;;;;;;5051943;28;20282;-63
2022/03/12 10:02:21;;;;;;;8.88;6.88;;;8.40;30.30;;;;;;5052264;28;20308;-64
2022/03/12 10:04:50;;;;;;;8.50;5.75;;;8.40;30.00;;;;;;5051929;28;20233;-64
2022/03/12 10:07:17;;;;;;;10.30;6.55;;;8.50;30.00;;;;;;5052504;28;20639;-64
2022/03/12 10:09:44;;;;;;;8.40;7.28;;;8.50;30.00;;;;;;5051945;28;20231;-64
2022/03/12 10:12:11;;;;;;;9.68;7.10;;;8.50;30.00;;;;;;5052153;28;20705;-63
2022/03/12 10:14:44;;;;;;;12.30;6.82;;;8.50;30.60;;;;;;5052228;28;20213;-63
2022/03/12 10:17:11;;;;;;;7.03;6.13;;;8.50;30.50;;;;;;5051927;28;20221;-63
2022/03/12 10:19:38;;;;;;;7.20;5.93;;;8.60;30.70;;;;;;5052422;28;20243;-64
2022/03/12 10:22:08;;;;;;;8.65;7.28;;;8.80;31.10;;;;;;5043452;28;20318;-64
2022/03/12 10:24:35;;;;;;;11.82;6.60;;;8.90;31.50;;;;;;5052492;28;20300;-63
2022/03/12 10:27:02;;;;;;;8.13;6.43;;;9.00;31.10;;;;;;5051788;28;20225;-64
2022/03/12 10:29:30;;;;;;;7.45;6.70;;;9.10;30.60;;;;;;5052313;28;20225;-64
2022/03/12 10:31:57;;;;;;;9.50;7.78;;;9.20;29.80;;;;;;5051589;28;20240;-64
2022/03/12 10:34:26;;;;;;;7.68;6.88;;;9.20;29.90;;;;;;5052343;28;20217;-64
2022/03/12 10:36:54;;;;;;;7.47;6.20;;;9.20;29.80;;;;;;5051752;28;20217;-64
2022/03/12 10:39:32;;;;;;;7.80;6.45;;;9.30;30.00;;;;;;5052210;28;20225;-64
2022/03/12 10:42:04;;;;;;;8.35;6.53;;;9.30;30.00;;;;;;5039772;28;20294;-64
2022/03/12 10:44:35;;;;;;;9.82;6.25;;;9.40;30.00;;;;;;5052105;28;20221;-64
2022/03/12 10:47:02;;;;;;;7.28;5.85;;;9.50;29.80;;;;;;5051664;28;20229;-64
2022/03/12 10:49:28;;;;;;;9.45;7.20;;;9.60;29.90;;;;;;5051813;28;20569;-64
2022/03/12 10:51:58;;;;;;;8.52;6.90;;;9.70;29.90;;;;;;5051361;28;20228;-64
2022/03/12 10:54:25;;;;;;;8.88;5.63;;;9.70;29.70;;;;;;5050928;28;20221;-64
2022/03/12 10:56:57;;;;;;;9.68;7.43;;;9.70;29.30;;;;;;5051462;28;20244;-63
2022/03/12 10:59:25;;;;;;;9.23;6.90;;;9.70;29.60;;;;;;5052117;28;20312;-64
2022/03/12 11:01:56;;;;;;;8.07;6.57;;;9.80;30.00;;;;;;5051619;28;20684;-63
2022/03/12 11:04:26;;;;;;;8.63;6.50;;;9.90;30.00;;;;;;5051909;28;20240;-63
2022/03/12 11:06:54;;;;;;;13.13;6.72;;;9.90;30.20;;;;;;5051591;28;20235;-63
2022/03/12 11:09:33;;;;;;;6.90;5.68;;;10.00;29.30;;;;;;5052896;28;20308;-63
2022/03/12 11:12:04;;;;;;;9.27;6.10;;;9.90;29.60;;;;;;5055259;28;20282;-63
2022/03/12 11:14:31;;;;;;;6.78;5.35;;;10.00;29.10;;;;;;5055465;28;20232;-63
2022/03/12 11:16:59;;;;;;;7.00;5.70;;;9.90;30.00;;;;;;5055221;28;20220;-64
2022/03/12 11:19:40;;;;;;;7.45;5.68;;;9.90;29.30;;;;;;5055577;28;20225;-63
2022/03/12 11:22:11;;;;;;;7.20;5.80;;;10.00;28.30;;;;;;5054896;28;20229;-63
2022/03/12 11:24:46;;;;;;;7.80;6.00;;;10.00;28.10;;;;;;5055227;28;20233;-63
2022/03/12 11:27:19;;;;;;;7.90;6.32;;;10.00;28.50;;;;;;5054951;28;20228;-64
2022/03/12 11:29:57;;;;;;;7.90;5.10;;;10.00;28.30;;;;;;5054745;28;20274;-63
2022/03/12 11:32:26;;;;;;;7.72;5.45;;;10.00;28.30;;;;;;5055212;28;20216;-64
2022/03/12 11:35:04;;;;;;;12.10;6.05;;;10.00;28.60;;;;;;5055270;28;20221;-64
2022/03/12 11:37:34;;;;;;;6.47;5.63;;;10.00;28.30;;;;;;5054918;28;20955;-64
2022/03/12 11:40:03;;;;;;;6.60;5.82;;;10.00;28.40;;;;;;5054909;28;20221;-64
2022/03/12 11:42:34;;;;;;;6.20;5.15;;;10.10;28.50;;;;;;5054782;28;20608;-64
2022/03/12 11:45:04;;;;;;;8.02;6.10;;;10.20;28.40;;;;;;5055063;28;20318;-64
2022/03/12 11:47:33;;;;;;;9.57;5.85;;;10.20;27.90;;;;;;5054517;28;20225;-63
2022/03/12 11:50:02;;;;;;;8.68;6.00;;;10.30;28.20;;;;;;5054776;28;20671;-63
2022/03/12 11:52:30;;;;;;;7.25;5.50;;;10.40;28.20;;;;;;5054343;28;20278;-63
2022/03/12 11:54:58;;;;;;;7.43;6.18;;;10.50;28.20;;;;;;5054843;28;20278;-63
2022/03/12 11:57:28;;;;;;;8.90;6.30;;;10.50;28.00;;;;;;5054447;28;20221;-63
2022/03/12 11:59:56;;;;;;;8.45;5.90;;;10.50;27.50;;;;;;5054675;28;20291;-63
2022/03/12 12:02:30;;;;;;;8.32;5.38;;;10.60;27.50;;;;;;5054151;28;20233;-63
2022/03/12 12:04:58;;;;;;;6.35;5.75;;;10.50;27.30;;;;;;5054607;28;20224;-63
2022/03/12 12:07:26;;;;;;;6.03;5.35;;;10.50;27.50;;;;;;5054133;28;20304;-64
2022/03/12 12:09:53;;;;;;;5.55;4.43;;;10.60;27.80;;;;;;5054533;28;20260;-63
2022/03/12 12:12:27;;;;;;;7.05;5.40;;;10.50;27.40;;;;;;5054026;28;20237;-64
2022/03/12 12:14:56;;;;;;;5.60;5.00;;;10.60;27.60;;;;;;5054404;28;20228;-64
2022/03/12 12:17:23;;;;;;;5.50;4.75;;;10.70;27.60;;;;;;5054070;28;20221;-64
2022/03/12 12:19:50;;;;;;;7.32;5.20;;;10.70;27.30;;;;;;5054073;28;20225;-64
2022/03/12 12:22:18;;;;;;;7.55;6.05;;;10.70;27.40;;;;;;5053858;28;20228;-64
2022/03/12 12:24:45;;;;;;;5.68;4.68;;;10.80;27.50;;;;;;5054116;28;20236;-63
2022/03/12 12:27:15;;;;;;;5.70;5.10;;;11.00;27.60;;;;;;5053738;28;20247;-64
2022/03/12 12:29:47;;;;;;;5.95;4.60;;;11.00;27.20;;;;;;5054096;28;20225;-63
2022/03/12 12:32:17;;;;;;;6.18;5.57;;;11.00;27.20;;;;;;5053741;28;20571;-63
2022/03/12 12:35:06;;;;;;;5.10;4.57;;;11.10;27.40;;;;;;5054104;28;20235;-64
2022/03/12 12:37:47;;;;;;;7.78;5.40;;;11.10;27.00;;;;;;5053470;28;20240;-63
2022/03/12 12:40:30;;;;;;;6.65;6.05;;;11.20;27.10;;;;;;5053527;28;20221;-63
2022/03/12 12:42:59;;;;;;;7.13;6.20;;;11.20;27.10;;;;;;5053847;28;20225;-63
2022/03/12 12:45:28;;;;;;;7.25;5.60;;;11.30;27.10;;;;;;5053690;28;20247;-64
2022/03/12 12:48:15;;;;;;;6.15;4.93;;;11.30;27.10;;;;;;5053776;28;20239;-63
2022/03/12 12:51:03;;;;;;;6.30;5.70;;;11.20;27.10;;;;;;5033520;28;20949;-64